createdAt,value
2018-09-26T00:01:45.022Z,102605.05
2018-09-26T00:06:42.511Z,102597.33
2018-09-26T00:11:39.958Z,102594.98
2018-09-26T00:16:38.143Z,102598.64
2018-09-26T00:21:35.560Z,102590.70
2018-09-26T00:26:33.070Z,102574.18
2018-09-26T00:31:30.498Z,102560.62
2018-09-26T00:36:27.921Z,102553.41
2018-09-26T00:41:25.413Z,102546.38
2018-09-26T00:46:22.824Z,102538.18
2018-09-26T00:51:20.267Z,102537.31
2018-09-26T00:56:17.687Z,102545.65
2018-09-26T01:01:15.141Z,102535.78
2018-09-26T01:06:12.555Z,102520.80
2018-09-26T01:11:10.059Z,102526.49
2018-09-26T01:16:07.483Z,102531.80
2018-09-26T01:21:04.911Z,102518.31
2018-09-26T01:26:02.347Z,102520.02
2018-09-26T01:30:59.791Z,102509.91
2018-09-26T01:35:57.204Z,102496.16
2018-09-26T01:40:54.608Z,102485.83
2018-09-26T01:45:52.022Z,102479.13
2018-09-26T01:50:49.436Z,102483.17
2018-09-26T01:55:46.905Z,102488.87
2018-09-26T02:00:44.336Z,102494.03
2018-09-26T02:05:41.758Z,102486.50
2018-09-26T02:10:39.186Z,102484.55
2018-09-26T02:15:36.623Z,102484.84
2018-09-26T02:20:34.070Z,102488.64
2018-09-26T02:25:32.983Z,102485.08
2018-09-26T02:30:30.413Z,102481.12
2018-09-26T02:35:27.839Z,102482.08
2018-09-26T02:40:25.248Z,102483.69
2018-09-26T02:45:22.695Z,102470.88
2018-09-26T02:50:20.112Z,102453.19
2018-09-26T02:55:17.558Z,102441.19
2018-09-26T03:00:14.996Z,102470.14
2018-09-26T03:05:12.400Z,102454.22
2018-09-26T03:10:09.816Z,102458.53
2018-09-26T03:15:07.235Z,102451.63
2018-09-26T03:20:04.959Z,102464.34
2018-09-26T03:25:02.384Z,102468.70
2018-09-26T03:29:59.816Z,102454.73
2018-09-26T03:34:57.235Z,102452.70
2018-09-26T03:39:54.655Z,102442.84
2018-09-26T03:44:52.061Z,102443.54
2018-09-26T03:49:49.478Z,102440.59
2018-09-26T03:54:50.874Z,102430.36
2018-09-26T03:59:48.407Z,102428.08
2018-09-26T04:04:45.839Z,102414.34
2018-09-26T04:09:43.230Z,102412.18
2018-09-26T04:14:40.640Z,102419.75
2018-09-26T04:19:38.072Z,102418.92
2018-09-26T04:24:36.727Z,102410.86
2018-09-26T04:29:34.167Z,102403.53
2018-09-26T04:34:35.891Z,102404.36
2018-09-26T04:39:33.927Z,102390.37
2018-09-26T04:44:31.811Z,102398.80
2018-09-26T04:49:29.233Z,102389.66
2018-09-26T04:54:28.922Z,102390.37
2018-09-26T04:59:26.396Z,102396.56
2018-09-26T05:04:23.865Z,102395.95
2018-09-26T05:09:21.310Z,102407.23
2018-09-26T05:14:18.704Z,102414.02
2018-09-26T05:19:16.200Z,102409.59
2018-09-26T05:24:20.054Z,102412.20
2018-09-26T05:29:17.523Z,102404.05
2018-09-26T05:34:14.992Z,102406.55
2018-09-26T05:39:12.463Z,102410.95
2018-09-26T05:44:10.200Z,102411.41
2018-09-26T05:49:08.323Z,102399.34
2018-09-26T05:54:29.604Z,102394.66
2018-09-26T05:59:27.159Z,102397.54
2018-09-26T06:04:24.619Z,102402.48
2018-09-26T06:09:22.099Z,102380.38
2018-09-26T06:14:19.616Z,102377.72
2018-09-26T06:19:17.086Z,102372.39
2018-09-26T06:24:18.278Z,102352.37
2018-09-26T06:29:15.781Z,102355.20
2018-09-26T06:34:13.271Z,102351.13
2018-09-26T06:39:11.778Z,102350.82
2018-09-26T06:44:09.225Z,102347.16
2018-09-26T06:49:06.684Z,102341.12
2018-09-26T06:54:11.889Z,102340.62
2018-09-26T06:59:09.500Z,102340.55
2018-09-26T07:04:06.999Z,102336.60
2018-09-26T07:09:06.726Z,102333.69
2018-09-26T07:14:04.160Z,102327.66
2018-09-26T07:19:01.587Z,102342.23
2018-09-26T07:24:08.932Z,102346.39
2018-09-26T07:29:06.935Z,102349.52
2018-09-26T07:34:04.355Z,102347.67
2018-09-26T07:39:01.868Z,102340.07
2018-09-26T07:43:59.325Z,102350.44
2018-09-26T07:48:56.752Z,102357.25
2018-09-26T07:54:05.089Z,102353.98
2018-09-26T07:59:02.615Z,102351.27
2018-09-26T08:04:00.183Z,102356.69
2018-09-26T08:08:57.616Z,102353.71
2018-09-26T08:13:55.063Z,102353.42
2018-09-26T08:18:52.562Z,102369.66
2018-09-26T08:28:54.828Z,102374.11
2018-09-26T08:33:52.280Z,102366.60
2018-09-26T08:38:49.731Z,102359.77
2018-09-26T08:43:49.030Z,102360.73
2018-09-26T08:48:51.457Z,102361.08
2018-09-26T08:53:54.794Z,102360.08
2018-09-26T08:58:55.098Z,102355.13
2018-09-26T09:03:54.204Z,102356.13
2018-09-26T09:08:51.690Z,102354.91
2018-09-26T09:13:49.112Z,102352.45
2018-09-26T09:18:47.332Z,102344.77
2018-09-26T09:23:48.267Z,102336.33
2018-09-26T09:28:45.713Z,102336.18
2018-09-26T09:33:43.185Z,102336.95
2018-09-26T09:38:41.377Z,102333.35
2018-09-26T09:43:40.033Z,102336.55
2018-09-26T09:48:37.433Z,102329.44
2018-09-26T09:53:38.064Z,102326.52
2018-09-26T09:58:35.557Z,102319.27
2018-09-26T10:03:33.012Z,102316.73
2018-09-26T10:08:33.863Z,102317.54
2018-09-26T10:13:33.243Z,102318.20
2018-09-26T10:18:35.048Z,102308.58
2018-09-26T10:23:36.172Z,102305.66
2018-09-26T10:28:35.771Z,102306.38
2018-09-26T10:33:33.796Z,102300.22
2018-09-26T10:38:33.780Z,102294.16
2018-09-26T10:43:31.244Z,102284.39
2018-09-26T10:48:28.844Z,102283.25
2018-09-26T10:53:26.277Z,102278.67
2018-09-26T10:58:23.768Z,102273.90
2018-09-26T11:03:21.200Z,102272.06
2018-09-26T11:08:18.947Z,102265.45
2018-09-26T11:13:16.400Z,102259.30
2018-09-26T11:18:13.887Z,102260.16
2018-09-26T11:23:11.360Z,102256.86
2018-09-26T11:28:08.848Z,102248.13
2018-09-26T11:33:06.388Z,102237.50
2018-09-26T11:38:03.881Z,102228.34
2018-09-26T11:43:02.011Z,102213.30
2018-09-26T11:48:00.382Z,102214.41
2018-09-26T11:52:59.044Z,102222.52
2018-09-26T11:57:56.516Z,102200.89
2018-09-26T12:02:53.985Z,102195.98
2018-09-26T12:07:51.863Z,102194.25
2018-09-26T12:12:49.500Z,102188.28
2018-09-26T12:18:58.903Z,102181.39
2018-09-26T12:24:00.222Z,102179.78
2018-09-26T12:28:58.380Z,102172.61
2018-09-26T12:33:56.419Z,102161.52
2018-09-26T12:39:02.908Z,102157.98
2018-09-26T12:44:05.667Z,102151.77
2018-09-26T12:49:11.676Z,102147.15
2018-09-26T12:54:28.210Z,102127.95
2018-09-26T12:59:32.072Z,102121.50
2018-09-26T13:04:31.857Z,102124.27
2018-09-26T13:14:40.614Z,102115.42
2018-09-26T13:19:40.102Z,102112.61
2018-09-26T13:24:40.831Z,102105.95
2018-09-26T13:29:46.339Z,102095.63
2018-09-26T13:34:46.037Z,102087.28
2018-09-26T13:39:45.303Z,102082.47
2018-09-26T13:44:45.063Z,102070.70
2018-09-26T13:49:47.657Z,102070.80
2018-09-26T13:54:51.157Z,102083.39
2018-09-26T13:59:48.692Z,102073.54
2018-09-26T14:04:46.136Z,102062.30
2018-09-26T14:09:43.661Z,102070.30
2018-09-26T14:14:41.121Z,102070.17
2018-09-26T14:19:45.921Z,102056.23
2018-09-26T14:24:50.120Z,102045.98
2018-09-26T14:29:47.784Z,102045.88
2018-09-26T14:34:45.473Z,102033.80
2018-09-26T14:39:43.184Z,102030.02
2018-09-26T14:44:40.893Z,102023.23
2018-09-26T14:49:38.712Z,102018.95
2018-09-26T14:54:37.019Z,102020.48
2018-09-26T14:59:34.750Z,102014.95
2018-09-26T15:04:32.558Z,102011.03
2018-09-26T15:09:30.192Z,102003.86
2018-09-26T15:14:27.896Z,102010.52
2018-09-26T15:19:25.618Z,102008.31
2018-09-26T15:24:29.870Z,102011.41
2018-09-26T15:29:27.569Z,101998.73
2018-09-26T15:34:25.290Z,101998.73
2018-09-26T15:39:22.979Z,101999.23
2018-09-26T15:44:20.771Z,102000.02
2018-09-26T15:49:18.436Z,101988.03
2018-09-26T15:54:21.303Z,101989.81
2018-09-26T15:59:19.081Z,101985.36
2018-09-26T16:04:24.368Z,101986.94
2018-09-26T16:09:21.808Z,101984.41
2018-09-26T16:14:25.894Z,101978.97
2018-09-26T16:19:23.397Z,101982.52
2018-09-26T16:24:28.265Z,101974.20
2018-09-26T16:29:25.825Z,101983.76
2018-09-26T16:34:23.281Z,101981.91
2018-09-26T16:39:20.798Z,101984.22
2018-09-26T16:44:18.226Z,101981.41
2018-09-26T16:49:15.700Z,101979.27
2018-09-26T16:54:14.477Z,101983.88
2018-09-26T16:59:12.120Z,101980.77
2018-09-26T17:04:09.579Z,101986.66
2018-09-26T17:09:07.920Z,101981.84
2018-09-26T17:14:05.404Z,101991.91
2018-09-26T17:19:02.844Z,101994.32
2018-09-26T17:24:10.721Z,102008.43
2018-09-26T17:29:08.350Z,102004.85
2018-09-26T17:34:05.817Z,102007.95
2018-09-26T17:39:04.405Z,102019.26
2018-09-26T17:44:01.853Z,102017.49
2018-09-26T17:48:59.268Z,102015.52
2018-09-26T17:54:07.873Z,102015.91
2018-09-26T17:59:05.476Z,102010.58
2018-09-26T18:04:02.880Z,102012.06
2018-09-26T18:09:00.310Z,102013.50
2018-09-26T18:13:57.738Z,102025.00
2018-09-26T18:18:55.155Z,102030.56
2018-09-26T18:24:04.746Z,102036.30
2018-09-26T18:29:02.308Z,102041.22
2018-09-26T18:33:59.724Z,102037.10
2018-09-26T18:38:57.228Z,102025.52
2018-09-26T18:43:54.616Z,102038.41
2018-09-26T18:48:52.047Z,102047.59
2018-09-26T18:53:49.824Z,102055.34
2018-09-26T18:58:47.244Z,102053.86
2018-09-26T19:03:44.681Z,102061.05
2018-09-26T19:08:42.089Z,102053.79
2018-09-26T19:13:39.624Z,102064.52
2018-09-26T19:18:37.056Z,102059.63
2018-09-26T19:23:34.472Z,102057.00
2018-09-26T19:28:32.013Z,102062.96
2018-09-26T19:33:29.425Z,102060.70
2018-09-26T19:38:26.867Z,102063.87
2018-09-26T19:43:24.308Z,102072.19
2018-09-26T19:48:21.729Z,102079.11
2018-09-26T19:53:19.146Z,102075.31
2018-09-26T19:58:16.606Z,102079.99
2018-09-26T20:03:14.044Z,102075.23
2018-09-26T20:08:11.563Z,102066.88
2018-09-26T20:13:08.939Z,102063.10
2018-09-26T20:18:06.350Z,102071.19
2018-09-26T20:23:03.923Z,102072.83
2018-09-26T20:28:01.269Z,102064.89
2018-09-26T20:32:58.711Z,102056.17
2018-09-26T20:37:56.124Z,102060.80
2018-09-26T20:42:53.532Z,102059.96
2018-09-26T20:47:50.932Z,102063.78
2018-09-26T20:52:48.342Z,102057.70
2018-09-26T20:57:45.764Z,102059.83
2018-09-26T21:02:43.186Z,102057.69
2018-09-26T21:07:40.599Z,102057.34
2018-09-26T21:12:38.040Z,102050.25
2018-09-26T21:17:35.475Z,102059.81
2018-09-26T21:22:32.903Z,102068.88
2018-09-26T21:27:30.319Z,102059.31
2018-09-26T21:32:27.739Z,102052.42
2018-09-26T21:37:25.152Z,102065.05
2018-09-26T21:42:22.608Z,102059.12
2018-09-26T21:47:20.030Z,102072.10
2018-09-26T21:52:17.442Z,102081.09
2018-09-26T21:57:14.895Z,102079.53
2018-09-26T22:02:12.348Z,102071.14
2018-09-26T22:07:09.779Z,102075.34
2018-09-26T22:12:07.229Z,102075.05
2018-09-26T22:17:04.651Z,102077.61
2018-09-26T22:22:02.107Z,102095.45
2018-09-26T22:26:59.505Z,102087.22
2018-09-26T22:31:56.912Z,102086.80
2018-09-26T22:36:54.320Z,102085.45
2018-09-26T22:41:51.725Z,102096.39
2018-09-26T22:46:49.172Z,102101.22
2018-09-26T22:51:46.583Z,102101.70
2018-09-26T22:56:44.003Z,102100.36
2018-09-26T23:01:41.475Z,102094.11
2018-09-26T23:06:38.904Z,102089.92
2018-09-26T23:11:37.857Z,102094.16
2018-09-26T23:16:35.340Z,102082.14
2018-09-26T23:21:32.735Z,102081.69
2018-09-26T23:26:33.866Z,102077.59
2018-09-26T23:31:31.263Z,102079.25
2018-09-26T23:36:28.657Z,102071.34
2018-09-26T23:41:26.114Z,102054.35
2018-09-26T23:46:23.496Z,102040.03
2018-09-26T23:51:20.980Z,102042.34
2018-09-26T23:56:18.383Z,102049.73
